Time;durP1;ratioP1;P1;durP2;ratioP2;P2;SDS_P1;SDS_P2;PMS_P1;PMS_P2;Temp;Humidity;BMP_temperature;BMP_pressure;BME280_temperature;BME280_humidity;BME280_pressure;Samples;Min_cycle;Max_cycle;Signal;HPM_P1;HPM_P2
2020/12/16 00:00:56;;;;;;;194.68;59.42;;;;;;;0.58;94.63;100511.41;3492526;28;20578;-50
2020/12/16 00:02:38;;;;;;;168.27;54.85;;;;;;;0.55;94.93;100500.09;3495626;28;20573;-50
2020/12/16 00:04:19;;;;;;;147.57;49.88;;;;;;;0.56;94.86;100512.97;3493528;28;20142;-48
2020/12/16 00:06:02;;;;;;;207.35;56.67;;;;;;;0.57;95.07;100511.28;3495380;28;20056;-51
2020/12/16 00:07:43;;;;;;;157.77;48.33;;;;;;;0.58;94.73;100518.19;3492681;28;20429;-48
2020/12/16 00:09:25;;;;;;;155.32;45.78;;;;;;;0.58;94.71;100518.19;3495783;28;20052;-48
2020/12/16 00:11:06;;;;;;;157.70;48.53;;;;;;;0.58;94.95;100513.94;3491559;28;20072;-49
2020/12/16 00:12:48;;;;;;;151.38;47.65;;;;;;;0.60;94.77;100511.50;3495211;28;20076;-50
2020/12/16 00:14:29;;;;;;;151.98;44.13;;;;;;;0.61;94.97;100518.34;3492986;28;20114;-49
2020/12/16 00:16:11;;;;;;;152.02;45.55;;;;;;;0.61;94.96;100511.59;3495268;28;20049;-50
2020/12/16 00:17:53;;;;;;;131.93;40.72;;;;;;;0.61;94.75;100511.59;3493601;28;20655;-54
2020/12/16 00:19:35;;;;;;;132.80;41.80;;;;;;;0.63;95.07;100515.91;3494219;28;20113;-49
2020/12/16 00:21:20;;;;;;;144.25;45.15;;;;;;;0.63;94.72;100511.72;3493815;28;20136;-51
2020/12/16 00:23:02;;;;;;;113.65;38.80;;;;;;;0.62;95.10;100509.94;3493201;28;20487;-49
2020/12/16 00:24:43;;;;;;;128.20;41.00;;;;;;;0.60;94.79;100507.28;3493260;28;20143;-48
2020/12/16 00:26:25;;;;;;;122.63;37.45;;;;;;;0.60;94.71;100511.50;3493688;28;20091;-49
2020/12/16 00:28:06;;;;;;;229.43;47.72;;;;;;;0.59;94.93;100509.72;3493248;28;20044;-50
2020/12/16 00:29:48;;;;;;;131.77;42.78;;;;;;;0.56;94.78;100509.50;3493771;28;20634;-50
2020/12/16 00:31:29;;;;;;;124.70;39.47;;;;;;;0.55;94.75;100508.63;3493465;28;20079;-48
2020/12/16 00:33:11;;;;;;;111.30;35.63;;;;;;;0.54;94.68;100509.44;3492513;28;20592;-49
2020/12/16 00:34:53;;;;;;;143.02;41.72;;;;;;;0.54;94.95;100505.97;3493707;28;20131;-50
2020/12/16 00:36:37;;;;;;;136.40;41.25;;;;;;;0.53;94.87;100515.31;3491807;28;20152;-48
2020/12/16 00:38:18;;;;;;;109.93;36.38;;;;;;;0.52;94.95;100510.97;3494053;28;20519;-49
2020/12/16 00:39:59;;;;;;;120.20;36.13;;;;;;;0.52;95.08;100510.97;3493050;28;20476;-49
2020/12/16 00:41:41;;;;;;;124.95;38.58;;;;;;;0.51;94.98;100506.66;3493546;28;20055;-50
2020/12/16 00:43:22;;;;;;;121.43;37.80;;;;;;;0.51;94.71;100501.56;3491113;28;20165;-51
2020/12/16 00:45:05;;;;;;;105.30;36.78;;;;;;;0.51;94.64;100511.78;3492780;28;20082;-48
2020/12/16 00:46:46;;;;;;;112.45;37.75;;;;;;;0.52;94.75;100510.09;3491029;28;20508;-50
2020/12/16 00:48:28;;;;;;;114.57;35.10;;;;;;;0.52;95.08;100505.88;3491577;28;20041;-48
2020/12/16 00:50:11;;;;;;;108.63;35.90;;;;;;;0.53;94.91;100507.66;3492526;28;20501;-50
2020/12/16 00:52:06;;;;;;;111.25;38.70;;;;;;;0.54;95.12;100511.97;3491793;28;20090;-49
2020/12/16 00:53:48;;;;;;;123.10;37.80;;;;;;;0.55;94.99;100511.19;3490191;28;20483;-48
2020/12/16 00:55:29;;;;;;;100.63;34.03;;;;;;;0.55;95.07;100511.19;3494483;28;20048;-49
2020/12/16 00:57:11;;;;;;;115.65;35.72;;;;;;;0.56;94.87;100506.94;3489158;28;20138;-44
2020/12/16 00:58:52;;;;;;;114.47;34.75;;;;;;;0.54;95.00;100504.31;3493376;28;20067;-44
2020/12/16 01:00:33;;;;;;;117.00;37.22;;;;;;;0.55;94.76;100500.09;3488846;28;20551;-44
2020/12/16 01:02:15;;;;;;;104.63;33.35;;;;;;;0.56;94.71;100500.19;3491220;28;20148;-44
2020/12/16 01:03:57;;;;;;;97.32;34.15;;;;;;;0.57;95.06;100499.41;3493652;28;20099;-49
2020/12/16 01:05:39;;;;;;;120.28;34.90;;;;;;;0.57;95.01;100493.41;3493129;28;20099;-44
2020/12/16 01:07:20;;;;;;;82.88;30.35;;;;;;;0.56;94.72;100496.75;3490895;28;20051;-43
2020/12/16 01:09:03;;;;;;;99.80;30.98;;;;;;;0.56;94.87;100490.00;3494681;28;20087;-43
2020/12/16 01:10:45;;;;;;;99.28;34.20;;;;;;;0.57;94.63;100490.88;3491424;28;20553;-44
2020/12/16 01:12:27;;;;;;;89.43;31.10;;;;;;;0.57;94.86;100491.75;3493294;28;20156;-43
2020/12/16 01:14:08;;;;;;;97.78;32.20;;;;;;;0.57;94.86;100491.75;3494222;28;20194;-44
2020/12/16 01:15:50;;;;;;;86.50;29.80;;;;;;;0.59;94.98;100496.94;3493581;28;20606;-43
2020/12/16 01:17:31;;;;;;;97.20;31.40;;;;;;;0.58;94.70;100490.09;3489422;28;20072;-44
2020/12/16 01:19:13;;;;;;;95.50;31.10;;;;;;;0.57;95.05;100489.19;3490323;28;20596;-48
2020/12/16 01:20:55;;;;;;;98.32;33.20;;;;;;;0.56;94.81;100490.00;3489781;28;20055;-51
2020/12/16 01:22:38;;;;;;;86.78;29.05;;;;;;;0.54;94.47;100486.44;3491317;28;20049;-49
2020/12/16 01:24:19;;;;;;;102.72;34.28;;;;;;;0.52;94.53;100484.56;3491113;28;20131;-51
2020/12/16 01:26:01;;;;;;;95.43;31.73;;;;;;;0.50;94.82;100487.00;3491495;28;20493;-53
2020/12/16 01:27:42;;;;;;;89.00;31.35;;;;;;;0.50;94.75;100483.59;3491712;28;20177;-44
2020/12/16 01:29:24;;;;;;;99.72;34.80;;;;;;;0.50;94.64;100483.59;3492601;28;20785;-43
2020/12/16 01:31:05;;;;;;;97.63;32.65;;;;;;;0.50;94.62;100484.47;3492568;28;20040;-43
2020/12/16 01:32:51;;;;;;;108.10;33.10;;;;;;;0.51;94.66;100481.13;3491140;28;20049;-43
2020/12/16 01:34:33;;;;;;;97.50;31.85;;;;;;;0.52;94.94;100475.22;3494972;28;20056;-43
2020/12/16 01:36:14;;;;;;;72.78;28.55;;;;;;;0.53;94.90;100474.47;3491802;28;20095;-43
2020/12/16 01:37:56;;;;;;;86.00;29.42;;;;;;;0.53;94.73;100471.91;3494272;28;20132;-49
2020/12/16 01:39:37;;;;;;;89.43;30.83;;;;;;;0.54;94.61;100468.59;3491019;28;20078;-48
2020/12/16 01:41:18;;;;;;;90.28;30.38;;;;;;;0.54;94.84;100462.56;3495168;28;20099;-52
2020/12/16 01:43:00;;;;;;;83.55;29.25;;;;;;;0.54;94.83;100467.69;3491572;28;20409;-47
2020/12/16 01:44:41;;;;;;;87.22;27.15;;;;;;;0.52;94.85;100467.56;3494670;28;20496;-44
2020/12/16 01:46:23;;;;;;;101.95;32.08;;;;;;;0.50;94.76;100465.72;3491898;28;20114;-43
2020/12/16 01:48:04;;;;;;;108.30;30.08;;;;;;;0.47;94.54;100462.94;3495064;28;20045;-43
2020/12/16 01:49:46;;;;;;;96.80;30.25;;;;;;;0.47;94.59;100462.94;3491643;28;20059;-43
2020/12/16 01:51:29;;;;;;;80.97;27.85;;;;;;;0.47;94.66;100461.31;3494516;28;20532;-43
2020/12/16 01:53:10;;;;;;;123.53;33.55;;;;;;;0.48;94.80;100459.63;3490163;28;20563;-44
2020/12/16 01:54:53;;;;;;;96.43;31.40;;;;;;;0.46;94.64;100467.19;3494464;28;20076;-44
2020/12/16 01:56:39;;;;;;;132.55;33.38;;;;;;;0.43;94.51;100464.41;3491417;28;20156;-44
2020/12/16 01:58:23;;;;;;;90.43;30.40;;;;;;;0.43;94.59;100464.41;3494173;28;20127;-44
2020/12/16 02:00:06;;;;;;;95.70;30.05;;;;;;;0.41;94.52;100456.66;3490634;28;20135;-43
2020/12/16 02:01:52;;;;;;;100.70;32.88;;;;;;;0.41;94.79;100461.75;3493885;28;20049;-48
2020/12/16 02:03:36;;;;;;;87.70;29.20;;;;;;;0.40;94.55;100454.91;3491420;28;20561;-46
2020/12/16 02:05:20;;;;;;;98.40;32.13;;;;;;;0.41;94.44;100458.31;3489003;28;20048;-44
2020/12/16 02:07:06;;;;;;;86.75;29.52;;;;;;;0.41;94.77;100458.31;3493122;28;20135;-45
2020/12/16 02:08:54;;;;;;;88.78;29.27;;;;;;;0.43;94.75;100459.31;3492663;28;20048;-49
2020/12/16 02:10:36;;;;;;;90.68;30.35;;;;;;;0.43;94.97;100455.09;3494059;28;20068;-49
2020/12/16 02:12:25;;;;;;;87.90;30.48;;;;;;;0.45;94.90;100452.63;3493143;28;20435;-43
2020/12/16 02:14:08;;;;;;;115.38;37.30;;;;;;;0.43;94.90;100454.22;3493330;28;20513;-44
2020/12/16 02:15:50;;;;;;;96.45;33.40;;;;;;;0.41;94.93;100451.53;3491796;28;20505;-51
2020/12/16 02:17:32;;;;;;;101.55;33.15;;;;;;;0.40;94.80;100452.34;3494311;28;20049;-49
2020/12/16 02:19:19;;;;;;;83.18;31.73;;;;;;;0.41;94.89;100446.44;3491013;28;20052;-51
2020/12/16 02:21:02;;;;;;;93.50;32.50;;;;;;;0.40;94.64;100447.25;3492718;28;20107;-49
2020/12/16 02:22:58;;;;;;;106.45;34.85;;;;;;;0.39;94.75;100444.59;3492584;28;20036;-44
2020/12/16 02:24:41;;;;;;;97.50;33.88;;;;;;;0.39;94.59;100448.00;3495858;28;20048;-49
2020/12/16 02:26:24;;;;;;;99.35;33.67;;;;;;;0.40;94.65;100449.78;3493922;28;20171;-50
2020/12/16 02:28:08;;;;;;;108.65;36.75;;;;;;;0.39;94.54;100448.00;3494821;28;20076;-44
2020/12/16 02:29:49;;;;;;;101.78;34.95;;;;;;;0.39;94.55;100449.69;3493550;28;20075;-44
2020/12/16 02:31:33;;;;;;;111.18;38.25;;;;;;;0.37;94.74;100443.59;3494284;28;20126;-44
2020/12/16 02:33:15;;;;;;;99.22;32.70;;;;;;;0.37;94.89;100447.03;3493385;28;20570;-43
2020/12/16 02:34:57;;;;;;;112.53;34.03;;;;;;;0.37;94.70;100451.25;3495866;28;20075;-49
2020/12/16 02:36:38;;;;;;;104.03;35.85;;;;;;;0.36;94.66;100452.03;3492771;28;20052;-49
2020/12/16 02:38:20;;;;;;;104.95;33.58;;;;;;;0.38;94.71;100453.00;3493484;28;20180;-43
2020/12/16 02:40:02;;;;;;;107.45;37.40;;;;;;;0.37;94.89;100451.25;3495171;28;20048;-43
2020/12/16 02:41:44;;;;;;;97.40;31.83;;;;;;;0.37;94.73;100447.03;3494976;28;20578;-50
2020/12/16 02:43:26;;;;;;;106.45;33.67;;;;;;;0.37;94.59;100453.81;3495175;28;20807;-43
2020/12/16 02:45:07;;;;;;;91.28;31.05;;;;;;;0.37;94.81;100443.59;3494497;28;20131;-43
2020/12/16 02:46:50;;;;;;;106.32;31.60;;;;;;;0.37;94.89;100446.16;3494537;28;20098;-44
2020/12/16 02:48:32;;;;;;;100.75;29.73;;;;;;;0.36;94.66;100447.81;3494291;28;20109;-44
2020/12/16 02:50:31;;;;;;;133.18;34.63;;;;;;;0.37;94.88;100448.72;3496468;28;20106;-44
2020/12/16 02:52:13;;;;;;;96.38;32.55;;;;;;;0.36;94.83;100454.59;3491892;28;20493;-44
2020/12/16 02:53:55;;;;;;;97.57;34.80;;;;;;;0.35;94.83;100450.28;3493685;28;20060;-43
2020/12/16 02:55:36;;;;;;;91.13;30.65;;;;;;;0.34;94.60;100449.38;3492680;28;20127;-43
2020/12/16 02:57:18;;;;;;;103.68;33.63;;;;;;;0.34;94.46;100448.50;3496803;28;20143;-43
2020/12/16 02:59:00;;;;;;;97.95;34.85;;;;;;;0.35;94.78;100447.72;3492568;28;20808;-43
2020/12/16 03:00:41;;;;;;;89.03;30.92;;;;;;;0.33;94.57;100441.59;3496133;28;20072;-44
2020/12/16 03:02:23;;;;;;;91.38;31.63;;;;;;;0.30;94.51;100439.75;3493049;28;20138;-50
2020/12/16 03:04:04;;;;;;;99.53;31.00;;;;;;;0.33;94.46;100444.16;3496119;28;20491;-43
2020/12/16 03:05:45;;;;;;;80.22;29.15;;;;;;;0.32;94.49;100447.50;3493602;28;20493;-43
2020/12/16 03:07:27;;;;;;;80.07;28.10;;;;;;;0.31;94.76;100443.19;3495652;28;20139;-51
2020/12/16 03:09:08;;;;;;;76.80;28.27;;;;;;;0.29;94.57;100440.53;3492981;28;20091;-50
2020/12/16 03:10:50;;;;;;;95.32;31.38;;;;;;;0.29;94.64;100443.06;3493860;28;20083;-44
2020/12/16 03:12:32;;;;;;;116.10;33.28;;;;;;;0.29;94.73;100443.06;3492960;28;20056;-43
2020/12/16 03:14:13;;;;;;;84.43;30.25;;;;;;;0.28;94.69;100441.31;3495271;28;20070;-47
2020/12/16 03:15:55;;;;;;;81.32;26.38;;;;;;;0.29;94.47;100448.19;3493222;28;20045;-43
2020/12/16 03:17:37;;;;;;;81.68;29.02;;;;;;;0.29;94.40;100444.75;3494427;28;20502;-44
2020/12/16 03:19:18;;;;;;;71.25;26.70;;;;;;;0.29;94.51;100443.06;3495217;28;20139;-44
2020/12/16 03:21:00;;;;;;;67.07;24.55;;;;;;;0.29;94.41;100444.75;3494499;28;20102;-44
2020/12/16 03:22:41;;;;;;;76.18;25.92;;;;;;;0.29;94.55;100444.75;3494664;28;20072;-44
2020/12/16 03:24:22;;;;;;;68.07;25.38;;;;;;;0.29;94.68;100453.28;3494886;28;20118;-50
2020/12/16 03:26:04;;;;;;;68.80;23.17;;;;;;;0.29;94.53;100447.31;3493211;28;20140;-43
2020/12/16 03:27:47;;;;;;;73.55;24.83;;;;;;;0.29;94.73;100440.53;3494950;28;20056;-51
2020/12/16 03:29:28;;;;;;;64.57;23.25;;;;;;;0.30;94.45;100449.09;3495931;28;20132;-45
2020/12/16 03:31:10;;;;;;;65.82;24.38;;;;;;;0.28;94.47;100441.31;3494100;28;20588;-43
2020/12/16 03:32:51;;;;;;;59.53;21.60;;;;;;;0.28;94.42;100437.88;3493610;28;20127;-43
2020/12/16 03:34:33;;;;;;;80.88;25.40;;;;;;;0.26;94.72;100448.00;3493776;28;20080;-50
2020/12/16 03:36:18;;;;;;;62.75;22.27;;;;;;;0.25;94.67;100450.44;3495942;28;20076;-52
2020/12/16 03:37:59;;;;;;;55.90;20.83;;;;;;;0.24;94.28;100449.53;3492448;28;20135;-48
2020/12/16 03:39:41;;;;;;;64.45;24.75;;;;;;;0.23;94.40;100448.66;3492030;28;20499;-49
2020/12/16 03:41:23;;;;;;;87.20;25.98;;;;;;;0.24;94.57;100449.53;3494736;28;20119;-52
2020/12/16 03:43:05;;;;;;;52.45;21.10;;;;;;;0.22;94.54;100452.00;3493441;28;20053;-48
2020/12/16 03:44:46;;;;;;;53.63;20.08;;;;;;;0.22;94.69;100449.47;3493662;28;20045;-49
2020/12/16 03:46:28;;;;;;;61.33;21.08;;;;;;;0.23;94.46;100456.31;3495510;28;20048;-51
2020/12/16 03:48:09;;;;;;;52.80;18.38;;;;;;;0.23;94.33;100451.22;3492099;28;20495;-50
2020/12/16 03:49:51;;;;;;;56.80;20.10;;;;;;;0.25;94.43;100455.53;3495554;28;20072;-44
2020/12/16 03:51:32;;;;;;;56.67;21.65;;;;;;;0.23;94.49;100452.88;3492584;28;20602;-43
2020/12/16 03:53:13;;;;;;;53.67;21.60;;;;;;;0.24;94.36;100454.63;3495758;28;20504;-49
2020/12/16 03:54:55;;;;;;;61.45;20.75;;;;;;;0.25;94.54;100451.31;3488756;28;20059;-51
2020/12/16 03:56:37;;;;;;;60.97;22.13;;;;;;;0.25;94.61;100455.53;3496059;28;20075;-44
2020/12/16 03:58:19;;;;;;;59.53;20.70;;;;;;;0.26;94.34;100458.19;3490231;28;20131;-44
2020/12/16 04:00:00;;;;;;;60.25;20.38;;;;;;;0.27;94.75;100454.84;3495886;28;20135;-50
2020/12/16 04:01:42;;;;;;;55.58;20.25;;;;;;;0.27;94.41;100466.72;3493344;28;20055;-52
2020/12/16 04:03:23;;;;;;;55.10;20.65;;;;;;;0.27;94.29;100470.16;3495987;28;20068;-49
2020/12/16 04:05:05;;;;;;;53.70;21.40;;;;;;;0.27;94.48;100457.41;3490822;28;20084;-44
2020/12/16 04:06:46;;;;;;;48.17;20.23;;;;;;;0.27;94.59;100461.63;3495366;28;20044;-49
2020/12/16 04:08:28;;;;;;;53.30;20.15;;;;;;;0.27;94.47;100459.94;3493014;28;20128;-49
2020/12/16 04:10:12;;;;;;;69.50;22.67;;;;;;;0.28;94.59;100463.38;3495541;28;20491;-44
2020/12/16 04:11:53;;;;;;;65.47;22.98;;;;;;;0.27;94.39;100457.41;3491959;28;20501;-49
2020/12/16 04:13:35;;;;;;;52.20;20.92;;;;;;;0.25;94.51;100463.19;3493637;28;20072;-51
2020/12/16 04:15:17;;;;;;;88.45;31.45;;;;;;;0.25;94.23;100465.75;3493427;28;20102;-50
2020/12/16 04:16:58;;;;;;;82.40;30.85;;;;;;;0.22;94.55;100459.66;3494111;28;20558;-43
2020/12/16 04:18:40;;;;;;;74.60;26.95;;;;;;;0.23;94.44;100458.00;3493407;28;20489;-44
2020/12/16 04:20:21;;;;;;;55.40;22.02;;;;;;;0.23;94.59;100460.53;3493651;28;20133;-44
2020/12/16 04:22:02;;;;;;;54.78;23.10;;;;;;;0.22;94.48;100462.22;3494069;28;20143;-50
2020/12/16 04:23:45;;;;;;;65.50;25.38;;;;;;;0.22;94.50;100464.75;3493913;28;20087;-43
2020/12/16 04:25:26;;;;;;;58.38;23.00;;;;;;;0.21;94.40;100465.53;3493770;28;20135;-51
2020/12/16 04:27:07;;;;;;;58.80;24.60;;;;;;;0.22;94.36;100463.84;3493422;28;20045;-43
2020/12/16 04:28:50;;;;;;;62.80;24.88;;;;;;;0.19;94.34;100469.66;3493888;28;20542;-43
2020/12/16 04:30:31;;;;;;;62.00;24.25;;;;;;;0.20;94.56;100465.44;3493624;28;20536;-44
2020/12/16 04:32:14;;;;;;;91.10;35.90;;;;;;;0.18;94.38;100467.88;3493102;28;20190;-51
2020/12/16 04:33:55;;;;;;;73.75;27.13;;;;;;;0.17;94.48;100465.22;3493218;28;20079;-49
2020/12/16 04:35:36;;;;;;;69.82;25.13;;;;;;;0.17;94.15;100470.31;3491820;28;20076;-49
2020/12/16 04:37:18;;;;;;;77.95;26.70;;;;;;;0.16;94.08;100460.91;3493003;28;20079;-43
2020/12/16 04:38:59;;;;;;;65.70;26.33;;;;;;;0.16;94.24;100468.56;3493082;28;20112;-43
2020/12/16 04:40:41;;;;;;;63.15;24.63;;;;;;;0.16;94.53;100471.97;3492860;28;20044;-49
2020/12/16 04:42:22;;;;;;;79.85;26.85;;;;;;;0.14;94.16;100468.44;3492621;28;20155;-44
2020/12/16 04:44:06;;;;;;;66.93;23.88;;;;;;;0.15;94.36;100476.97;3492521;28;20045;-51
2020/12/16 04:45:50;;;;;;;66.80;23.48;;;;;;;0.14;94.25;100476.09;3493289;28;20082;-44
2020/12/16 04:47:31;;;;;;;69.23;23.43;;;;;;;0.14;94.47;100481.22;3492399;28;20139;-43
2020/12/16 04:49:13;;;;;;;70.10;23.45;;;;;;;0.14;94.12;100478.66;3492926;28;20067;-43
2020/12/16 04:50:54;;;;;;;69.88;25.13;;;;;;;0.15;94.26;100482.09;3491290;28;20421;-44
2020/12/16 04:52:38;;;;;;;62.63;23.15;;;;;;;0.15;94.39;100479.53;3493799;28;20080;-50
2020/12/16 04:54:28;;;;;;;66.03;23.25;;;;;;;0.15;94.17;100484.63;3487444;28;20413;-50
2020/12/16 04:56:12;;;;;;;65.55;25.15;;;;;;;0.14;94.22;100481.22;3493535;28;20072;-50
2020/12/16 04:57:53;;;;;;;68.95;24.70;;;;;;;0.14;94.13;100481.22;3491563;28;20139;-52
2020/12/16 04:59:35;;;;;;;75.32;26.45;;;;;;;0.14;94.36;100482.88;3495212;28;20171;-52
2020/12/16 05:01:17;;;;;;;72.20;25.85;;;;;;;0.14;94.35;100487.97;3490652;28;20461;-49
2020/12/16 05:03:00;;;;;;;82.43;27.23;;;;;;;0.13;94.07;100492.19;3494898;28;20044;-51
2020/12/16 05:04:42;;;;;;;92.45;31.40;;;;;;;0.13;94.12;100499.84;3490697;28;20075;-50
2020/12/16 05:06:35;;;;;;;72.30;27.98;;;;;;;0.14;94.30;100493.09;3492532;28;20110;-49
2020/12/16 05:08:17;;;;;;;81.88;29.17;;;;;;;0.14;94.36;100488.84;3493529;28;20080;-53
2020/12/16 05:09:58;;;;;;;76.00;29.08;;;;;;;0.15;94.48;100490.59;3493328;28;20134;-50
2020/12/16 05:11:43;;;;;;;68.85;24.77;;;;;;;0.14;94.50;100486.31;3493896;28;20524;-52
2020/12/16 05:13:26;;;;;;;76.43;25.20;;;;;;;0.16;94.36;100489.84;3491095;28;20193;-50
2020/12/16 05:15:21;;;;;;;80.45;26.75;;;;;;;0.17;94.45;100488.16;3494623;28;20049;-50
2020/12/16 05:17:04;;;;;;;74.90;25.80;;;;;;;0.15;94.36;100482.97;3491172;28;20052;-49
2020/12/16 05:18:50;;;;;;;65.55;24.98;;;;;;;0.14;94.31;100476.09;3493743;28;20041;-49
2020/12/16 05:20:31;;;;;;;63.70;23.52;;;;;;;0.15;94.41;100482.97;3491828;28;20425;-52
2020/12/16 05:22:24;;;;;;;64.75;23.25;;;;;;;0.16;94.28;100471.97;3493014;28;20138;-53
2020/12/16 05:24:11;;;;;;;65.95;24.95;;;;;;;0.15;94.21;100467.66;3489681;28;20040;-50
2020/12/16 05:26:01;;;;;;;75.90;27.13;;;;;;;0.16;94.13;100468.56;3494526;28;20505;-54
2020/12/16 05:27:43;;;;;;;62.00;23.88;;;;;;;0.15;94.40;100465.09;3491950;28;20425;-50
2020/12/16 05:29:26;;;;;;;75.07;25.33;;;;;;;0.15;94.38;100465.09;3493461;28;20045;-51
2020/12/16 05:31:11;;;;;;;67.53;23.75;;;;;;;0.13;94.26;100469.22;3493287;28;20072;-50
2020/12/16 05:32:53;;;;;;;61.65;22.33;;;;;;;0.14;94.22;100467.56;3493442;28;20048;-50
2020/12/16 05:34:34;;;;;;;61.53;22.55;;;;;;;0.15;94.36;100461.66;3492154;28;20044;-51
2020/12/16 05:36:28;;;;;;;64.53;24.00;;;;;;;0.14;94.21;100463.34;3493665;28;20048;-50
2020/12/16 05:38:10;;;;;;;65.28;23.40;;;;;;;0.15;94.13;100461.66;3492573;28;20189;-48
2020/12/16 05:39:56;;;;;;;69.70;24.50;;;;;;;0.15;94.30;100466.78;3492334;28;20398;-50
2020/12/16 05:41:39;;;;;;;69.43;22.45;;;;;;;0.15;94.26;100469.31;3493872;28;20141;-51
2020/12/16 05:43:25;;;;;;;54.30;22.50;;;;;;;0.15;94.25;100459.13;3493167;28;20044;-52
2020/12/16 05:45:12;;;;;;;59.97;21.77;;;;;;;0.17;94.23;100467.75;3494142;28;20072;-51
2020/12/16 05:46:54;;;;;;;59.85;20.55;;;;;;;0.17;94.13;100466.13;3492906;28;20139;-49
2020/12/16 05:48:37;;;;;;;59.75;22.02;;;;;;;0.18;94.17;100467.00;3493464;28;20049;-49
2020/12/16 05:50:19;;;;;;;59.97;24.98;;;;;;;0.19;94.38;100466.22;3490251;28;20048;-49
2020/12/16 05:52:03;;;;;;;70.07;24.00;;;;;;;0.19;94.27;100463.66;3491941;28;20612;-49
2020/12/16 05:53:45;;;;;;;64.03;23.92;;;;;;;0.19;93.88;100466.22;3489262;28;20152;-49
2020/12/16 05:55:27;;;;;;;55.42;22.17;;;;;;;0.18;94.07;100470.41;3495750;28;20076;-50
2020/12/16 05:57:10;;;;;;;67.95;23.85;;;;;;;0.18;94.20;100465.31;3493157;28;20044;-52
2020/12/16 05:58:51;;;;;;;73.47;25.48;;;;;;;0.19;93.74;100468.78;3496250;28;20174;-43
2020/12/16 06:00:41;;;;;;;67.57;26.15;;;;;;;0.18;93.72;100469.53;3492134;28;20063;-43
2020/12/16 06:02:23;;;;;;;73.30;23.70;;;;;;;0.18;93.80;100474.66;3493984;28;20083;-51
2020/12/16 06:04:05;;;;;;;69.32;26.48;;;;;;;0.18;93.77;100475.53;3493421;28;20085;-43
2020/12/16 06:05:49;;;;;;;72.90;25.10;;;;;;;0.18;93.80;100483.19;3496372;28;20052;-45
2020/12/16 06:07:31;;;;;;;;;;;;;;;0.17;93.67;100480.50;3495904;28;20137;-43
2020/12/16 06:09:12;;;;;;;73.07;22.63;;;;;;;0.18;93.93;100478.06;3496942;28;20238;-48
2020/12/16 06:10:54;;;;;;;79.25;26.45;;;;;;;0.18;93.77;100484.84;3495647;28;20082;-49
2020/12/16 06:12:38;;;;;;;70.30;25.20;;;;;;;0.17;93.59;100494.19;3494153;28;20098;-51
2020/12/16 06:14:21;;;;;;;66.80;25.42;;;;;;;0.16;93.59;100491.53;3488040;28;20151;-51
2020/12/16 06:16:04;;;;;;;74.18;25.35;;;;;;;0.17;93.80;100493.28;3486991;28;20159;-54
2020/12/16 06:17:48;;;;;;;68.68;23.98;;;;;;;0.17;93.91;100491.63;3487561;28;20048;-47
2020/12/16 06:19:34;;;;;;;56.05;22.17;;;;;;;0.17;93.86;100490.72;3501326;28;20421;-49
2020/12/16 06:21:16;;;;;;;71.68;25.98;;;;;;;0.18;93.61;100489.94;3495173;28;20072;-42
2020/12/16 06:23:03;;;;;;;64.22;25.33;;;;;;;0.17;93.63;100494.19;3492781;28;20147;-51
2020/12/16 06:24:44;;;;;;;66.45;24.20;;;;;;;0.18;93.45;100498.47;3482638;28;20069;-55
2020/12/16 06:26:29;;;;;;;60.65;24.55;;;;;;;0.19;93.78;100494.28;3489523;28;20075;-50
2020/12/16 06:28:13;;;;;;;68.18;24.88;;;;;;;0.20;93.53;100499.47;3482728;28;20135;-45
2020/12/16 06:29:58;;;;;;;57.72;23.75;;;;;;;0.19;93.81;100490.06;3489132;28;20059;-43
2020/12/16 06:31:42;;;;;;;54.92;21.58;;;;;;;0.21;93.83;100491.03;3482660;28;20053;-42
2020/12/16 06:33:47;;;;;;;60.45;24.55;;;;;;;0.22;93.36;100499.56;3488611;28;20601;-45
2020/12/16 06:35:28;;;;;;;;;;;;;;;0.20;93.03;100498.59;3485213;28;20609;-43
2020/12/16 06:37:14;;;;;;;40.38;16.63;;;;;;;0.19;92.89;100495.16;3489593;28;20002;-47
2020/12/16 06:38:56;;;;;;;46.80;18.60;;;;;;;0.19;92.73;100497.72;3486620;28;20103;-48
2020/12/16 06:40:44;;;;;;;39.97;18.55;;;;;;;0.20;92.92;100501.13;3488605;28;20126;-49
2020/12/16 06:42:32;;;;;;;38.80;18.08;;;;;;;0.20;92.47;100506.25;3487896;28;20044;-46
2020/12/16 06:44:13;;;;;;;49.45;20.80;;;;;;;0.21;92.61;100514.00;3485792;28;20064;-45
2020/12/16 06:45:55;;;;;;;47.13;20.52;;;;;;;0.22;92.66;100512.34;3489178;28;20421;-45
2020/12/16 06:47:36;;;;;;;42.50;18.63;;;;;;;0.23;92.26;100509.00;3484338;28;20052;-45
2020/12/16 06:49:38;;;;;;;45.33;19.40;;;;;;;0.24;92.17;100510.75;3494358;28;20448;-42
2020/12/16 06:51:22;;;;;;;43.75;18.52;;;;;;;0.23;92.23;100504.78;3496277;28;20087;-44
2020/12/16 06:53:21;;;;;;;45.87;19.07;;;;;;;0.25;92.08;100510.00;3489878;28;20139;-44
2020/12/16 06:55:07;;;;;;;45.70;19.83;;;;;;;0.27;91.92;100510.09;3493637;28;20310;-44
2020/12/16 06:56:50;;;;;;;49.90;22.83;;;;;;;0.29;91.95;100511.97;3494993;28;20485;-44
2020/12/16 06:58:39;;;;;;;37.78;17.40;;;;;;;0.30;91.73;100515.44;3495519;28;20052;-47
2020/12/16 07:00:22;;;;;;;24.38;13.25;;;;;;;0.26;91.02;100514.34;3493245;28;20475;-44
2020/12/16 07:02:10;;;;;;;24.65;11.45;;;;;;;0.27;90.80;100517.75;3492766;28;20163;-50
2020/12/16 07:03:51;;;;;;;23.38;12.40;;;;;;;0.26;89.74;100515.97;3493285;28;20567;-50
2020/12/16 07:05:40;;;;;;;17.27;8.63;;;;;;;0.25;89.34;100515.09;3494079;28;20075;-49
2020/12/16 07:07:49;;;;;;;20.25;9.50;;;;;;;0.27;89.33;100521.19;3493959;28;20049;-52
2020/12/16 07:09:33;;;;;;;18.05;10.35;;;;;;;0.27;88.98;100516.09;3491917;28;20052;-50
2020/12/16 07:11:38;;;;;;;20.70;10.18;;;;;;;0.31;89.07;100509.53;3496613;28;20198;-53
2020/12/16 07:13:24;;;;;;;;;;;;;;;0.33;89.20;100515.63;3491739;28;20420;-51
2020/12/16 07:15:05;;;;;;;25.67;12.73;;;;;;;0.35;89.21;100517.50;3493077;28;20019;-50
2020/12/16 07:16:48;;;;;;;24.00;13.18;;;;;;;0.38;89.44;100506.59;3493161;28;20075;-52
2020/12/16 07:18:53;;;;;;;26.88;14.05;;;;;;;0.39;89.35;100511.81;3495282;28;20136;-50
2020/12/16 07:20:34;;;;;;;29.38;14.55;;;;;;;0.42;89.58;100503.50;3495336;28;20076;-52
2020/12/16 07:22:20;;;;;;;35.38;16.67;;;;;;;0.45;89.69;100513.00;3493225;28;20147;-50
2020/12/16 07:24:04;;;;;;;42.22;18.48;;;;;;;0.46;89.44;100507.16;3494961;28;20139;-44
2020/12/16 07:26:02;;;;;;;39.13;17.33;;;;;;;0.49;89.44;100507.31;3493205;28;20052;-44
2020/12/16 07:27:46;;;;;;;33.80;16.85;;;;;;;0.48;89.45;100503.91;3494797;28;20386;-44
2020/12/16 07:29:30;;;;;;;37.77;16.87;;;;;;;0.49;89.64;100510.78;3493039;28;20051;-44
2020/12/16 07:31:12;;;;;;;40.63;19.00;;;;;;;0.50;89.41;100504.00;3478628;28;20277;-51
2020/12/16 07:33:10;;;;;;;38.05;17.85;;;;;;;0.50;89.19;100506.56;3491509;28;20052;-53
2020/12/16 07:34:54;;;;;;;34.25;16.70;;;;;;;0.50;88.81;100504.00;3492004;28;20490;-51
2020/12/16 07:36:38;;;;;;;31.85;16.05;;;;;;;0.52;89.39;100512.66;3491821;28;20051;-50
2020/12/16 07:38:20;;;;;;;28.80;15.68;;;;;;;0.53;89.19;100514.44;3494281;28;20533;-54
2020/12/16 07:40:10;;;;;;;28.83;15.10;;;;;;;0.54;89.19;100505.97;3493738;28;20048;-55
2020/12/16 07:41:53;;;;;;;30.80;14.77;;;;;;;0.54;89.00;100496.66;3492994;28;20500;-50
2020/12/16 07:43:34;;;;;;;28.45;14.82;;;;;;;0.56;89.05;100505.31;3492080;28;20504;-52
2020/12/16 07:45:16;;;;;;;28.85;15.85;;;;;;;0.56;88.95;100506.94;3493615;28;20048;-52
2020/12/16 07:47:03;;;;;;;26.10;14.80;;;;;;;0.55;88.59;100513.72;3494440;28;20154;-50
2020/12/16 07:48:45;;;;;;;27.35;14.32;;;;;;;0.57;89.06;100516.41;3492741;28;20061;-52
2020/12/16 07:50:27;;;;;;;25.38;13.63;;;;;;;0.58;88.76;100516.50;3493153;28;20066;-51
2020/12/16 07:52:09;;;;;;;29.58;14.25;;;;;;;0.58;88.75;100511.41;3493799;28;20053;-50
2020/12/16 07:53:51;;;;;;;23.63;13.38;;;;;;;0.58;88.61;100516.50;3493668;28;20508;-50
2020/12/16 07:55:38;;;;;;;24.67;12.82;;;;;;;0.59;88.69;100514.81;3490709;28;20091;-51